createdAt,value
2018-01-25T00:00:06.432Z,9.31
2018-01-25T00:01:06.638Z,9.38
2018-01-25T00:02:06.458Z,9.38
2018-01-25T00:03:06.194Z,9.38
2018-01-25T00:04:06.151Z,9.31
2018-01-25T00:05:05.795Z,9.31
2018-01-25T00:06:06.245Z,9.38
2018-01-25T00:07:06.559Z,9.31
2018-01-25T00:08:06.178Z,9.31
2018-01-25T00:09:06.440Z,9.31
2018-01-25T00:10:05.905Z,9.31
2018-01-25T00:11:06.371Z,9.31
2018-01-25T00:12:06.628Z,9.31
2018-01-25T00:13:06.145Z,9.31
2018-01-25T00:14:10.667Z,9.31
2018-01-25T00:15:06.642Z,9.31
2018-01-25T00:16:06.344Z,9.31
2018-01-25T00:17:06.404Z,9.31
2018-01-25T00:18:06.152Z,9.31
2018-01-25T00:19:06.383Z,9.31
2018-01-25T00:20:06.652Z,9.31
2018-01-25T00:21:06.121Z,9.31
2018-01-25T00:22:06.148Z,9.25
2018-01-25T00:23:06.322Z,9.25
2018-01-25T00:24:06.394Z,9.31
2018-01-25T00:25:06.290Z,9.31
2018-01-25T00:26:06.449Z,9.31
2018-01-25T00:27:06.471Z,9.25
2018-01-25T00:28:06.525Z,9.25
2018-01-25T00:29:06.334Z,9.31
2018-01-25T00:30:06.426Z,9.25
2018-01-25T00:31:06.419Z,9.25
2018-01-25T00:32:06.171Z,9.25
2018-01-25T00:33:06.742Z,9.31
2018-01-25T00:34:05.786Z,9.31
2018-01-25T00:35:06.337Z,9.25
2018-01-25T00:36:06.292Z,9.25
2018-01-25T00:37:06.378Z,9.25
2018-01-25T00:38:06.167Z,9.25
2018-01-25T00:39:06.135Z,9.19
2018-01-25T00:40:05.870Z,9.19
2018-01-25T00:41:07.001Z,9.19
2018-01-25T00:42:10.780Z,9.19
2018-01-25T00:43:06.358Z,9.19
2018-01-25T00:44:06.427Z,9.25
2018-01-25T00:45:06.414Z,9.25
2018-01-25T00:46:06.340Z,9.25
2018-01-25T00:47:06.158Z,9.25
2018-01-25T00:48:06.410Z,9.25
2018-01-25T00:49:11.277Z,9.25
2018-01-25T00:50:06.590Z,9.19
2018-01-25T00:51:06.115Z,9.19
2018-01-25T00:52:05.760Z,9.19
2018-01-25T00:53:06.169Z,9.19
2018-01-25T00:54:06.476Z,9.19
2018-01-25T00:55:06.179Z,9.19
2018-01-25T00:56:06.184Z,9.19
2018-01-25T00:57:06.367Z,9.19
2018-01-25T00:58:06.863Z,9.19
2018-01-25T00:59:06.155Z,9.19
2018-01-25T01:00:05.858Z,9.19
2018-01-25T01:01:05.926Z,9.19
2018-01-25T01:02:06.229Z,9.12
2018-01-25T01:03:06.474Z,9.12
2018-01-25T01:04:05.836Z,9.12
2018-01-25T01:05:06.137Z,9.12
2018-01-25T01:06:06.200Z,9.12
2018-01-25T01:07:06.608Z,9.06
2018-01-25T01:08:06.711Z,9.06
2018-01-25T01:09:06.156Z,9.12
2018-01-25T01:10:06.190Z,9.12
2018-01-25T01:11:06.220Z,9.12
2018-01-25T01:12:06.355Z,9.12
2018-01-25T01:13:06.255Z,9.12
2018-01-25T01:14:05.787Z,9.06
2018-01-25T01:15:06.199Z,9.06
2018-01-25T01:16:06.189Z,9.12
2018-01-25T01:17:06.677Z,9.12
2018-01-25T01:18:05.969Z,9.12
2018-01-25T01:19:06.214Z,9.12
2018-01-25T01:20:06.378Z,9.12
2018-01-25T01:21:06.381Z,9.12
2018-01-25T01:22:06.621Z,9.12
2018-01-25T01:23:06.174Z,9.12
2018-01-25T01:24:06.370Z,9.06
2018-01-25T01:25:06.242Z,9.06
2018-01-25T01:26:06.385Z,9.06
2018-01-25T01:27:06.218Z,9.06
2018-01-25T01:28:05.868Z,9.06
2018-01-25T01:29:06.237Z,9.12
2018-01-25T01:30:06.399Z,9.12
2018-01-25T01:31:06.365Z,9.12
2018-01-25T01:32:06.282Z,9.12
2018-01-25T01:33:06.404Z,9.06
2018-01-25T01:34:11.297Z,9.06
2018-01-25T01:35:06.327Z,9.06
2018-01-25T01:36:06.640Z,9.06
2018-01-25T01:37:05.852Z,9.06
2018-01-25T01:38:06.367Z,9.06
2018-01-25T01:39:06.466Z,9.06
2018-01-25T01:40:10.907Z,9.06
2018-01-25T01:41:05.726Z,9.06
2018-01-25T01:42:06.534Z,9.06
2018-01-25T01:43:06.286Z,9.06
2018-01-25T01:44:06.362Z,9.06
2018-01-25T01:45:06.629Z,9.06
2018-01-25T01:46:06.173Z,9.06
2018-01-25T01:47:06.380Z,9.06
2018-01-25T01:48:05.863Z,9.12
2018-01-25T01:49:06.386Z,9.06
2018-01-25T01:50:06.229Z,9.06
2018-01-25T01:51:06.496Z,9.06
2018-01-25T01:52:06.250Z,9.06
2018-01-25T01:53:06.541Z,9.06
2018-01-25T01:54:06.696Z,9.06
2018-01-25T01:55:06.510Z,9.06
2018-01-25T01:56:05.937Z,9.06
2018-01-25T01:57:06.401Z,9.06
2018-01-25T01:58:05.903Z,9.06
2018-01-25T01:59:06.394Z,9.06
2018-01-25T02:00:06.291Z,9.06
2018-01-25T02:01:06.345Z,9.06
2018-01-25T02:02:06.665Z,9.06
2018-01-25T02:03:06.659Z,9.06
2018-01-25T02:04:05.865Z,9.06
2018-01-25T02:05:06.438Z,9.06
2018-01-25T02:06:06.422Z,9.06
2018-01-25T02:07:06.490Z,9.06
2018-01-25T02:08:05.921Z,9.06
2018-01-25T02:09:06.429Z,9.06
2018-01-25T02:10:06.565Z,9.00
2018-01-25T02:11:05.985Z,9.06
2018-01-25T02:12:06.600Z,9.06
2018-01-25T02:13:06.469Z,9.00
2018-01-25T02:14:05.906Z,9.00
2018-01-25T02:15:06.284Z,9.00
2018-01-25T02:16:06.329Z,9.00
2018-01-25T02:17:06.233Z,9.00
2018-01-25T02:18:06.200Z,9.00
2018-01-25T02:19:05.862Z,9.00
2018-01-25T02:20:06.028Z,9.00
2018-01-25T02:21:06.663Z,9.00
2018-01-25T02:22:05.965Z,9.00
2018-01-25T02:23:05.838Z,9.00
2018-01-25T02:24:06.492Z,9.00
2018-01-25T02:25:06.458Z,8.94
2018-01-25T02:26:10.893Z,8.94
2018-01-25T02:27:06.562Z,8.94
2018-01-25T02:28:05.888Z,8.94
2018-01-25T02:29:06.477Z,9.00
2018-01-25T02:30:05.822Z,9.00
2018-01-25T02:31:05.908Z,9.00
2018-01-25T02:32:06.433Z,9.00
2018-01-25T02:33:06.644Z,8.94
2018-01-25T02:34:06.555Z,8.94
2018-01-25T02:35:06.289Z,8.94
2018-01-25T02:36:06.381Z,8.94
2018-01-25T02:37:05.940Z,8.94
2018-01-25T02:38:06.298Z,8.88
2018-01-25T02:39:06.471Z,8.88
2018-01-25T02:40:05.816Z,8.88
2018-01-25T02:41:05.900Z,8.88
2018-01-25T02:42:06.334Z,8.88
2018-01-25T02:43:05.944Z,8.88
2018-01-25T02:44:06.384Z,8.88
2018-01-25T02:45:06.883Z,8.88
2018-01-25T02:46:05.932Z,8.88
2018-01-25T02:47:05.992Z,8.88
2018-01-25T02:48:06.356Z,8.88
2018-01-25T02:49:05.921Z,8.88
2018-01-25T02:50:06.551Z,8.81
2018-01-25T02:51:10.788Z,8.81
2018-01-25T02:52:06.710Z,8.81
2018-01-25T02:53:06.325Z,8.81
2018-01-25T02:54:05.971Z,8.81
2018-01-25T02:55:06.315Z,8.81
2018-01-25T02:56:05.976Z,8.81
2018-01-25T02:57:06.364Z,8.75
2018-01-25T02:58:06.553Z,8.81
2018-01-25T02:59:06.255Z,8.81
2018-01-25T03:00:05.927Z,8.81
2018-01-25T03:01:06.310Z,8.81
2018-01-25T03:02:06.024Z,8.81
2018-01-25T03:03:07.095Z,8.81
2018-01-25T03:04:06.335Z,8.81
2018-01-25T03:05:05.893Z,8.81
2018-01-25T03:06:06.546Z,8.81
2018-01-25T03:07:06.524Z,8.75
2018-01-25T03:08:06.232Z,8.75
2018-01-25T03:09:06.827Z,8.75
2018-01-25T03:10:06.308Z,8.75
2018-01-25T03:11:06.524Z,8.75
2018-01-25T03:12:06.666Z,8.75
2018-01-25T03:13:07.196Z,8.75
2018-01-25T03:14:06.479Z,8.75
2018-01-25T03:15:06.370Z,8.69
2018-01-25T03:16:05.920Z,8.69
2018-01-25T03:17:06.592Z,8.69
2018-01-25T03:18:06.590Z,8.75
2018-01-25T03:19:06.440Z,8.75
2018-01-25T03:20:06.053Z,8.75
2018-01-25T03:21:06.513Z,8.75
2018-01-25T03:22:06.493Z,8.75
2018-01-25T03:23:06.376Z,8.69
2018-01-25T03:24:06.290Z,8.69
2018-01-25T03:25:06.471Z,8.69
2018-01-25T03:26:06.291Z,8.69
2018-01-25T03:27:06.817Z,8.69
2018-01-25T03:28:06.509Z,8.69
2018-01-25T03:29:06.321Z,8.69
2018-01-25T03:30:06.263Z,8.69
2018-01-25T03:31:05.605Z,8.69
2018-01-25T03:32:05.954Z,8.69
2018-01-25T03:33:06.523Z,8.69
2018-01-25T03:34:06.560Z,8.69
2018-01-25T03:35:06.574Z,8.69
2018-01-25T03:36:06.701Z,8.69
2018-01-25T03:37:10.596Z,8.62
2018-01-25T03:38:06.550Z,8.62
2018-01-25T03:39:06.082Z,8.62
2018-01-25T03:40:11.060Z,8.62
2018-01-25T03:41:06.112Z,8.62
2018-01-25T03:42:16.326Z,8.62
2018-01-25T03:43:06.397Z,8.62
2018-01-25T03:44:06.030Z,8.62
2018-01-25T03:45:06.775Z,8.62
2018-01-25T03:46:06.641Z,8.62
2018-01-25T03:47:06.324Z,8.62
2018-01-25T03:48:06.088Z,8.62
2018-01-25T03:49:05.956Z,8.56
2018-01-25T03:50:06.489Z,8.56
2018-01-25T03:51:06.570Z,8.56
2018-01-25T03:52:06.031Z,8.56
2018-01-25T03:53:06.420Z,8.56
2018-01-25T03:54:06.643Z,8.56
2018-01-25T03:55:06.789Z,8.56
2018-01-25T03:56:06.068Z,8.62
2018-01-25T03:57:06.517Z,8.62
2018-01-25T03:58:06.534Z,8.62
2018-01-25T03:59:06.429Z,8.56
2018-01-25T04:00:06.402Z,8.62
2018-01-25T04:01:06.326Z,8.62
2018-01-25T04:02:05.917Z,8.62
2018-01-25T04:03:06.042Z,8.69
2018-01-25T04:04:06.394Z,8.69
2018-01-25T04:05:06.557Z,8.69
2018-01-25T04:06:06.445Z,8.69
2018-01-25T04:07:06.009Z,8.69
2018-01-25T04:08:11.109Z,8.75
2018-01-25T04:09:06.719Z,8.69
2018-01-25T04:10:06.018Z,8.69
2018-01-25T04:11:06.464Z,8.69
2018-01-25T04:12:05.988Z,8.69
2018-01-25T04:13:07.795Z,8.69
2018-01-25T04:14:06.642Z,8.69
2018-01-25T04:15:05.934Z,8.69
2018-01-25T04:16:06.630Z,8.69
2018-01-25T04:17:11.167Z,8.75
2018-01-25T04:18:05.969Z,8.75
2018-01-25T04:19:06.455Z,8.75
2018-01-25T04:20:05.979Z,8.75
2018-01-25T04:21:06.653Z,8.75
2018-01-25T04:22:06.719Z,8.75
2018-01-25T04:23:07.415Z,8.75
2018-01-25T04:24:06.739Z,8.75
2018-01-25T04:25:06.605Z,8.75
2018-01-25T04:26:06.599Z,8.75
2018-01-25T04:27:06.624Z,8.81
2018-01-25T04:28:06.492Z,8.81
2018-01-25T04:29:06.383Z,8.81
2018-01-25T04:30:06.027Z,8.81
2018-01-25T04:31:06.362Z,8.81
2018-01-25T04:32:06.915Z,8.81
2018-01-25T04:33:06.500Z,8.81
2018-01-25T04:34:06.132Z,8.81
2018-01-25T04:35:05.636Z,8.81
2018-01-25T04:36:11.156Z,8.81
2018-01-25T04:37:06.435Z,8.81
2018-01-25T04:38:06.384Z,8.88
2018-01-25T04:39:07.433Z,8.88
2018-01-25T04:40:06.585Z,8.88
2018-01-25T04:41:07.002Z,8.88
2018-01-25T04:42:06.565Z,8.88
2018-01-25T04:43:06.098Z,8.88
2018-01-25T04:44:06.044Z,8.88
2018-01-25T04:45:06.388Z,8.88
2018-01-25T04:46:06.123Z,8.94
2018-01-25T04:47:06.052Z,8.88
2018-01-25T04:48:06.971Z,8.94
2018-01-25T04:49:07.430Z,8.94
2018-01-25T04:50:05.948Z,8.94
2018-01-25T04:51:06.071Z,8.94
2018-01-25T04:52:06.066Z,8.94
2018-01-25T04:53:06.601Z,8.94
2018-01-25T04:54:06.559Z,8.94
2018-01-25T04:55:06.483Z,8.94
2018-01-25T04:56:06.100Z,8.94
2018-01-25T04:57:06.035Z,8.94
2018-01-25T04:58:06.505Z,8.94
2018-01-25T04:59:06.076Z,9.00
2018-01-25T05:00:06.098Z,9.00
2018-01-25T05:01:06.424Z,9.00
2018-01-25T05:02:05.925Z,9.00
2018-01-25T05:03:06.316Z,9.00
2018-01-25T05:04:06.008Z,9.06
2018-01-25T05:05:06.871Z,9.06
2018-01-25T05:06:06.122Z,9.06
2018-01-25T05:07:06.075Z,9.06
2018-01-25T05:08:05.817Z,9.12
2018-01-25T05:09:06.078Z,9.12
2018-01-25T05:10:06.894Z,9.12
2018-01-25T05:11:06.573Z,9.19
2018-01-25T05:12:06.631Z,9.19
2018-01-25T05:13:06.058Z,9.19
2018-01-25T05:14:06.430Z,9.19
2018-01-25T05:15:05.990Z,9.25
2018-01-25T05:16:06.670Z,9.25
2018-01-25T05:17:06.593Z,9.25
2018-01-25T05:18:06.693Z,9.25
2018-01-25T05:19:06.063Z,9.25
2018-01-25T05:20:06.641Z,9.25
2018-01-25T05:21:06.369Z,9.25
2018-01-25T05:22:06.618Z,9.25
2018-01-25T05:23:06.026Z,9.25
2018-01-25T05:24:06.525Z,9.25
2018-01-25T05:25:06.640Z,9.25
2018-01-25T05:26:06.748Z,9.25
2018-01-25T05:27:06.100Z,9.25
2018-01-25T05:28:07.280Z,9.25
2018-01-25T05:29:05.797Z,9.25
2018-01-25T05:30:06.198Z,9.25
2018-01-25T05:31:11.066Z,9.25
2018-01-25T05:32:06.686Z,9.31
2018-01-25T05:33:06.555Z,9.31
2018-01-25T05:34:06.488Z,9.31
2018-01-25T05:35:11.498Z,9.25
2018-01-25T05:36:06.056Z,9.31
2018-01-25T05:37:06.500Z,9.31
2018-01-25T05:38:06.697Z,9.31
2018-01-25T05:39:06.442Z,9.31
2018-01-25T05:40:06.456Z,9.31
2018-01-25T05:41:06.472Z,9.31
2018-01-25T05:42:06.116Z,9.31
2018-01-25T05:43:06.625Z,9.31
2018-01-25T05:44:06.484Z,9.31
2018-01-25T05:45:06.544Z,9.31
2018-01-25T05:46:06.409Z,9.31
2018-01-25T05:47:06.116Z,9.31
2018-01-25T05:48:06.385Z,9.31
2018-01-25T05:49:05.664Z,9.31
2018-01-25T05:50:11.342Z,9.31
2018-01-25T05:51:06.031Z,9.31
2018-01-25T05:52:06.144Z,9.31
2018-01-25T05:53:11.585Z,9.31
2018-01-25T05:54:06.392Z,9.31
2018-01-25T05:55:05.660Z,9.31
2018-01-25T05:56:06.063Z,9.31
2018-01-25T05:57:06.179Z,9.31
2018-01-25T05:58:06.038Z,9.31
2018-01-25T05:59:11.156Z,9.31
2018-01-25T06:00:06.008Z,9.31
2018-01-25T06:01:06.072Z,9.31
2018-01-25T06:02:06.505Z,9.31
2018-01-25T06:03:06.715Z,9.31
2018-01-25T06:04:06.490Z,9.31
2018-01-25T06:05:06.608Z,9.31
2018-01-25T06:06:06.169Z,9.31
2018-01-25T06:07:06.442Z,9.31
2018-01-25T06:08:06.141Z,9.31
2018-01-25T06:09:06.217Z,9.31
2018-01-25T06:10:06.470Z,9.31
2018-01-25T06:11:06.454Z,9.31
2018-01-25T06:12:06.789Z,9.31
2018-01-25T06:13:06.486Z,9.31
2018-01-25T06:14:06.892Z,9.31
2018-01-25T06:15:06.525Z,9.31
2018-01-25T06:16:05.779Z,9.31
2018-01-25T06:17:05.822Z,9.31
2018-01-25T06:18:06.407Z,9.31
2018-01-25T06:19:06.595Z,9.31
2018-01-25T06:20:06.637Z,9.31
2018-01-25T06:21:06.547Z,9.31
2018-01-25T06:22:06.148Z,9.31
2018-01-25T06:23:06.733Z,9.31
2018-01-25T06:24:06.533Z,9.31
2018-01-25T06:25:06.184Z,9.31
2018-01-25T06:26:06.624Z,9.31
2018-01-25T06:27:06.088Z,9.31
2018-01-25T06:28:06.547Z,9.31
2018-01-25T06:29:06.845Z,9.31
2018-01-25T06:30:06.496Z,9.31
2018-01-25T06:31:06.850Z,9.25
2018-01-25T06:32:06.221Z,9.25
2018-01-25T06:33:06.664Z,9.31
2018-01-25T06:34:06.195Z,9.31
2018-01-25T06:35:06.726Z,9.31
2018-01-25T06:36:06.104Z,9.31
2018-01-25T06:37:06.636Z,9.31
2018-01-25T06:38:06.569Z,9.31
2018-01-25T06:39:06.086Z,9.31
2018-01-25T06:40:06.162Z,9.31
2018-01-25T06:41:06.489Z,9.31
2018-01-25T06:42:10.778Z,9.31
2018-01-25T06:43:06.681Z,9.25
2018-01-25T06:44:05.809Z,9.25
2018-01-25T06:45:06.534Z,9.25
2018-01-25T06:46:06.183Z,9.25
2018-01-25T06:47:05.799Z,9.25
2018-01-25T06:48:06.091Z,9.25
2018-01-25T06:49:06.496Z,9.25
2018-01-25T06:50:06.122Z,9.25
2018-01-25T06:51:06.151Z,9.25
2018-01-25T06:52:05.836Z,9.25
2018-01-25T06:53:06.275Z,9.25
2018-01-25T06:54:06.153Z,9.25
2018-01-25T06:55:11.339Z,9.25
2018-01-25T06:56:05.776Z,9.25
2018-01-25T06:57:06.810Z,9.25
2018-01-25T06:58:06.112Z,9.25
2018-01-25T06:59:06.674Z,9.25
2018-01-25T07:00:10.894Z,9.25
2018-01-25T07:01:06.555Z,9.25
2018-01-25T07:02:06.516Z,9.25
2018-01-25T07:03:06.095Z,9.31
2018-01-25T07:04:06.104Z,9.31
2018-01-25T07:05:06.579Z,9.31
2018-01-25T07:06:06.247Z,9.25
2018-01-25T07:07:06.592Z,9.25
2018-01-25T07:08:06.113Z,9.25
2018-01-25T07:09:06.523Z,9.25
2018-01-25T07:10:10.849Z,9.25
2018-01-25T07:11:06.699Z,9.25
2018-01-25T07:12:06.636Z,9.25
2018-01-25T07:13:06.221Z,9.25
2018-01-25T07:14:06.296Z,9.25
2018-01-25T07:15:06.124Z,9.25
2018-01-25T07:16:06.113Z,9.25
2018-01-25T07:17:06.046Z,9.25
2018-01-25T07:18:06.187Z,9.25
2018-01-25T07:19:06.519Z,9.25
2018-01-25T07:20:06.172Z,9.25
2018-01-25T07:21:06.596Z,9.31
2018-01-25T07:22:11.338Z,9.31
2018-01-25T07:23:06.539Z,9.31
2018-01-25T07:24:06.636Z,9.31
2018-01-25T07:25:06.230Z,9.31
2018-01-25T07:26:06.659Z,9.31
2018-01-25T07:27:05.846Z,9.31
2018-01-25T07:28:06.172Z,9.31
2018-01-25T07:29:06.497Z,9.31
2018-01-25T07:30:06.241Z,9.31
2018-01-25T07:31:06.323Z,9.31
2018-01-25T07:32:11.317Z,9.31
2018-01-25T07:33:11.505Z,9.31
2018-01-25T07:34:06.255Z,9.31
2018-01-25T07:35:06.110Z,9.31
2018-01-25T07:36:06.680Z,9.31
2018-01-25T07:37:06.131Z,9.38
2018-01-25T07:38:05.892Z,9.31
2018-01-25T07:39:06.168Z,9.38
2018-01-25T07:40:06.486Z,9.38
2018-01-25T07:41:05.833Z,9.38
2018-01-25T07:42:06.649Z,9.38
2018-01-25T07:43:06.609Z,9.38
2018-01-25T07:44:06.593Z,9.38
2018-01-25T07:45:05.948Z,9.38
2018-01-25T07:46:06.669Z,9.38
2018-01-25T07:47:07.049Z,9.38
2018-01-25T07:48:07.038Z,9.44
2018-01-25T07:49:06.785Z,9.44
2018-01-25T07:50:06.217Z,9.44
2018-01-25T07:51:06.610Z,9.44
2018-01-25T07:52:06.138Z,9.44
2018-01-25T07:53:06.577Z,9.44
2018-01-25T07:54:10.767Z,9.44
2018-01-25T07:55:06.567Z,9.50
2018-01-25T07:56:05.834Z,9.50
2018-01-25T07:57:06.523Z,9.50
2018-01-25T07:58:05.839Z,9.50
2018-01-25T07:59:06.314Z,9.50
2018-01-25T08:00:06.597Z,9.50
2018-01-25T08:01:11.570Z,9.50
2018-01-25T08:02:06.723Z,9.50
2018-01-25T08:03:06.149Z,9.56
2018-01-25T08:04:06.581Z,9.50
2018-01-25T08:05:06.899Z,9.56
2018-01-25T08:06:06.889Z,9.56
2018-01-25T08:07:05.841Z,9.56
2018-01-25T08:08:06.201Z,9.56
2018-01-25T08:09:06.661Z,9.56
2018-01-25T08:10:05.869Z,9.62
2018-01-25T08:11:05.864Z,9.56
2018-01-25T08:12:06.614Z,9.56
2018-01-25T08:13:06.239Z,9.62
2018-01-25T08:14:05.805Z,9.62
2018-01-25T08:15:06.648Z,9.62
2018-01-25T08:16:06.234Z,9.62
2018-01-25T08:17:06.622Z,9.69
2018-01-25T08:18:05.850Z,9.69
2018-01-25T08:19:11.494Z,9.69
2018-01-25T08:20:06.195Z,9.69
2018-01-25T08:21:06.600Z,9.69
2018-01-25T08:22:06.647Z,9.69
2018-01-25T08:23:06.044Z,9.69
2018-01-25T08:24:06.654Z,9.69
2018-01-25T08:25:06.585Z,9.75
2018-01-25T08:26:06.361Z,9.75
2018-01-25T08:27:06.389Z,9.75
2018-01-25T08:28:05.887Z,9.75
2018-01-25T08:29:06.211Z,9.75
2018-01-25T08:30:05.973Z,9.75
2018-01-25T08:31:06.198Z,9.81
2018-01-25T08:32:05.815Z,9.81
2018-01-25T08:33:05.914Z,9.81
2018-01-25T08:34:06.651Z,9.81
2018-01-25T08:35:05.884Z,9.81
2018-01-25T08:36:06.771Z,9.81
2018-01-25T08:37:06.168Z,9.88
2018-01-25T08:38:06.241Z,9.88
2018-01-25T08:39:05.958Z,9.88
2018-01-25T08:40:06.195Z,9.88
2018-01-25T08:41:05.829Z,9.88
2018-01-25T08:42:06.291Z,9.88
2018-01-25T08:43:06.299Z,9.94
2018-01-25T08:44:07.131Z,9.94
2018-01-25T08:45:06.404Z,9.94
2018-01-25T08:46:06.349Z,9.94
2018-01-25T08:47:05.838Z,9.94
2018-01-25T08:48:06.251Z,9.94
2018-01-25T08:49:06.640Z,9.94
2018-01-25T08:50:06.207Z,9.94
2018-01-25T08:51:06.280Z,9.94
2018-01-25T08:52:06.295Z,10.00
2018-01-25T08:53:06.590Z,10.00
2018-01-25T08:54:05.899Z,10.00
2018-01-25T08:55:06.300Z,10.00
2018-01-25T08:56:06.850Z,10.00
2018-01-25T08:57:05.780Z,10.00
2018-01-25T08:58:05.905Z,10.00
2018-01-25T08:59:06.229Z,10.00
2018-01-25T09:00:05.879Z,10.00
2018-01-25T09:01:05.911Z,10.00
2018-01-25T09:02:06.629Z,10.06
2018-01-25T09:03:06.654Z,10.06
2018-01-25T09:04:06.335Z,10.06
2018-01-25T09:05:06.704Z,10.06
2018-01-25T09:06:06.233Z,10.06
2018-01-25T09:07:06.650Z,10.12
2018-01-25T09:08:06.335Z,10.12
2018-01-25T09:09:06.266Z,10.12
2018-01-25T09:10:06.301Z,10.12
2018-01-25T09:11:06.742Z,10.12
2018-01-25T09:12:05.914Z,10.19
2018-01-25T09:13:06.597Z,10.19
2018-01-25T09:14:06.700Z,10.19
2018-01-25T09:15:06.707Z,10.19
2018-01-25T09:16:06.416Z,10.19
2018-01-25T09:17:06.301Z,10.25
2018-01-25T09:18:05.878Z,10.25
2018-01-25T09:19:06.313Z,10.25
2018-01-25T09:20:06.706Z,10.25
2018-01-25T09:21:06.701Z,10.25
2018-01-25T09:22:06.334Z,10.25
2018-01-25T09:23:06.666Z,10.25
2018-01-25T09:24:05.901Z,10.25
2018-01-25T09:25:06.314Z,10.25
2018-01-25T09:26:06.674Z,10.25
2018-01-25T09:27:05.884Z,10.25
2018-01-25T09:28:06.757Z,10.31
2018-01-25T09:29:06.770Z,10.25
2018-01-25T09:30:06.716Z,10.31
2018-01-25T09:31:05.926Z,10.31
2018-01-25T09:32:06.393Z,10.31
2018-01-25T09:33:05.880Z,10.31
2018-01-25T09:34:06.321Z,10.31
2018-01-25T09:35:06.748Z,10.31
2018-01-25T09:36:06.005Z,10.31
2018-01-25T09:37:06.290Z,10.38
2018-01-25T09:38:06.393Z,10.38
2018-01-25T09:39:06.324Z,10.38
2018-01-25T09:40:05.972Z,10.38
2018-01-25T09:41:06.016Z,10.38
2018-01-25T09:42:06.657Z,10.44
2018-01-25T09:43:06.776Z,10.44
2018-01-25T09:44:06.627Z,10.44
2018-01-25T09:45:06.293Z,10.44
2018-01-25T09:46:06.925Z,10.44
2018-01-25T09:47:05.964Z,10.44
2018-01-25T09:48:06.905Z,10.50
2018-01-25T09:49:06.306Z,10.50
2018-01-25T09:50:06.794Z,10.50
2018-01-25T09:51:06.657Z,10.50
2018-01-25T09:52:06.373Z,10.50
2018-01-25T09:53:05.943Z,10.50
2018-01-25T09:54:06.306Z,10.50
2018-01-25T09:55:06.289Z,10.56
2018-01-25T09:56:06.345Z,10.56
2018-01-25T09:57:06.803Z,10.56
2018-01-25T09:58:06.390Z,10.56
2018-01-25T09:59:06.761Z,10.56
2018-01-25T10:00:05.960Z,10.56
2018-01-25T10:01:05.942Z,10.56
2018-01-25T10:02:06.002Z,10.56
2018-01-25T10:03:06.706Z,10.62
2018-01-25T10:04:05.954Z,10.62
2018-01-25T10:05:06.806Z,10.69
2018-01-25T10:06:06.993Z,10.69
2018-01-25T10:07:06.323Z,10.69
2018-01-25T10:08:06.863Z,10.69
2018-01-25T10:09:06.369Z,10.69
2018-01-25T10:10:06.753Z,10.69
2018-01-25T10:11:05.918Z,10.69
2018-01-25T10:12:05.906Z,10.75
2018-01-25T10:13:06.361Z,10.75
2018-01-25T10:14:05.642Z,10.75
2018-01-25T10:15:06.717Z,10.75
2018-01-25T10:16:06.271Z,10.75
2018-01-25T10:17:05.952Z,10.75
2018-01-25T10:18:06.777Z,10.81
2018-01-25T10:19:06.087Z,10.81
2018-01-25T10:20:06.402Z,10.81
2018-01-25T10:21:06.393Z,10.88
2018-01-25T10:22:05.915Z,10.88
2018-01-25T10:23:06.681Z,10.88
2018-01-25T10:24:06.760Z,10.88
2018-01-25T10:25:05.987Z,10.94
2018-01-25T10:26:06.423Z,10.94
2018-01-25T10:27:05.963Z,10.94
2018-01-25T10:28:06.778Z,10.94
2018-01-25T10:29:06.741Z,11.00
2018-01-25T10:30:06.082Z,11.00
2018-01-25T10:31:06.387Z,11.06
2018-01-25T10:32:06.441Z,11.06
2018-01-25T10:33:06.789Z,11.06
2018-01-25T10:34:05.989Z,11.06
2018-01-25T10:35:06.859Z,11.06
2018-01-25T10:36:06.358Z,11.12
2018-01-25T10:37:06.006Z,11.12
2018-01-25T10:38:06.285Z,11.19
2018-01-25T10:39:05.930Z,11.19
2018-01-25T10:40:06.020Z,11.19
2018-01-25T10:41:06.345Z,11.19
2018-01-25T10:42:06.013Z,11.25
2018-01-25T10:43:06.020Z,11.25
2018-01-25T10:44:07.003Z,11.31
2018-01-25T10:45:06.177Z,11.31
2018-01-25T10:46:06.062Z,11.38
2018-01-25T10:47:06.379Z,11.38
2018-01-25T10:48:06.418Z,11.44
2018-01-25T10:49:06.419Z,11.44
2018-01-25T10:50:06.411Z,11.50
2018-01-25T10:51:06.399Z,11.50
2018-01-25T10:52:06.054Z,11.50
2018-01-25T10:53:06.318Z,11.50
2018-01-25T10:54:06.409Z,11.56
2018-01-25T10:55:06.402Z,11.62
2018-01-25T10:56:06.410Z,11.62
2018-01-25T10:57:06.037Z,11.62
2018-01-25T10:58:07.172Z,11.62
2018-01-25T10:59:06.453Z,11.69
2018-01-25T11:00:06.375Z,11.69
2018-01-25T11:01:05.595Z,11.75
2018-01-25T11:02:06.715Z,11.75
2018-01-25T11:03:06.782Z,11.75
2018-01-25T11:04:06.848Z,11.75
2018-01-25T11:05:05.987Z,11.75
2018-01-25T11:06:06.006Z,11.81
2018-01-25T11:07:06.818Z,11.81
2018-01-25T11:08:06.361Z,11.81
2018-01-25T11:09:06.992Z,11.81
2018-01-25T11:10:06.089Z,11.88
2018-01-25T11:11:06.330Z,11.88
2018-01-25T11:12:06.510Z,11.88
2018-01-25T11:13:06.013Z,11.88
2018-01-25T11:14:06.011Z,11.94
2018-01-25T11:15:06.006Z,11.94
2018-01-25T11:16:06.491Z,11.94
2018-01-25T11:17:06.845Z,11.94
2018-01-25T11:18:06.396Z,11.94
2018-01-25T11:19:06.775Z,11.94
2018-01-25T11:20:06.807Z,12.00
2018-01-25T11:21:06.018Z,12.00
2018-01-25T11:22:06.848Z,12.00
2018-01-25T11:23:06.015Z,12.00
2018-01-25T11:24:06.113Z,12.00
2018-01-25T11:25:06.063Z,12.00
2018-01-25T11:26:05.734Z,12.00
2018-01-25T11:27:05.980Z,12.00
2018-01-25T11:28:06.386Z,12.00
2018-01-25T11:29:06.899Z,12.00
2018-01-25T11:30:06.417Z,12.00
2018-01-25T11:31:06.342Z,12.00
2018-01-25T11:32:06.362Z,12.06
2018-01-25T11:33:05.721Z,12.06
2018-01-25T11:34:06.002Z,12.06
2018-01-25T11:35:06.748Z,12.06
2018-01-25T11:36:06.435Z,12.06
2018-01-25T11:37:06.217Z,12.06
2018-01-25T11:38:06.067Z,12.06
2018-01-25T11:39:06.844Z,12.12
2018-01-25T11:40:06.248Z,12.12
2018-01-25T11:41:06.390Z,12.12
2018-01-25T11:42:07.024Z,12.12
2018-01-25T11:43:05.738Z,12.12
2018-01-25T11:44:06.958Z,12.19
2018-01-25T11:45:06.483Z,12.19
2018-01-25T11:46:06.372Z,12.19
2018-01-25T11:47:06.411Z,12.19
2018-01-25T11:48:05.981Z,12.19
2018-01-25T11:49:06.770Z,12.19
2018-01-25T11:50:06.817Z,12.19
2018-01-25T11:51:06.077Z,12.19
2018-01-25T11:52:06.375Z,12.19
2018-01-25T11:53:06.415Z,12.19
2018-01-25T11:54:07.074Z,12.19
2018-01-25T11:55:06.067Z,12.19
2018-01-25T11:56:06.400Z,12.19
2018-01-25T11:57:06.401Z,12.19
2018-01-25T11:58:06.398Z,12.19
2018-01-25T11:59:05.827Z,12.19
2018-01-25T12:00:06.139Z,12.19
2018-01-25T12:01:06.255Z,12.19
2018-01-25T12:02:06.040Z,12.19
2018-01-25T12:03:06.533Z,12.19
2018-01-25T12:04:05.679Z,12.12
2018-01-25T12:05:06.080Z,12.12
2018-01-25T12:06:05.717Z,12.12
2018-01-25T12:07:06.807Z,12.19
2018-01-25T12:08:06.379Z,12.12
2018-01-25T12:09:06.609Z,12.12
2018-01-25T12:10:06.432Z,12.12
2018-01-25T12:11:06.888Z,12.12
2018-01-25T12:12:06.405Z,12.12
2018-01-25T12:13:06.750Z,12.12
2018-01-25T12:14:06.831Z,12.12
2018-01-25T12:15:06.483Z,12.12
2018-01-25T12:16:06.657Z,12.12
2018-01-25T12:17:06.102Z,12.12
2018-01-25T12:18:06.978Z,12.12
2018-01-25T12:19:06.494Z,12.12
2018-01-25T12:20:05.976Z,12.12
2018-01-25T12:21:06.467Z,12.12
2018-01-25T12:22:06.079Z,12.12
2018-01-25T12:23:05.668Z,12.12
2018-01-25T12:24:06.151Z,12.12
2018-01-25T12:25:06.160Z,12.12
2018-01-25T12:26:07.341Z,12.06
2018-01-25T12:27:05.696Z,12.06
2018-01-25T12:28:06.118Z,12.06
2018-01-25T12:29:07.022Z,12.06
2018-01-25T12:30:06.563Z,12.06
2018-01-25T12:31:06.427Z,12.06
2018-01-25T12:32:05.781Z,12.06
2018-01-25T12:33:06.092Z,12.06
2018-01-25T12:34:06.838Z,12.06
2018-01-25T12:35:06.100Z,12.06
2018-01-25T12:36:06.870Z,12.00
2018-01-25T12:37:06.415Z,12.00
2018-01-25T12:38:05.736Z,12.00
2018-01-25T12:39:06.077Z,12.00
2018-01-25T12:40:06.177Z,12.00
2018-01-25T12:41:06.411Z,12.00
2018-01-25T12:42:05.766Z,12.00
2018-01-25T12:43:06.796Z,12.00
2018-01-25T12:44:06.046Z,12.00
2018-01-25T12:45:06.147Z,12.00
2018-01-25T12:46:06.177Z,12.00
2018-01-25T12:47:06.839Z,12.00
2018-01-25T12:48:06.415Z,12.06
2018-01-25T12:49:06.531Z,12.00
2018-01-25T12:50:05.850Z,12.00
2018-01-25T12:51:06.511Z,12.00
2018-01-25T12:52:05.787Z,12.00
2018-01-25T12:53:06.110Z,12.00
2018-01-25T12:54:06.224Z,12.00
2018-01-25T12:55:06.114Z,12.00
2018-01-25T12:56:06.463Z,12.00
2018-01-25T12:57:06.585Z,12.00
2018-01-25T12:58:06.117Z,12.00
2018-01-25T12:59:06.495Z,11.94
2018-01-25T13:00:05.753Z,12.00
2018-01-25T13:01:06.817Z,12.00
2018-01-25T13:02:06.491Z,12.00
2018-01-25T13:03:07.091Z,12.00
2018-01-25T13:04:06.553Z,11.94
2018-01-25T13:05:05.778Z,11.94
2018-01-25T13:06:06.541Z,11.94
2018-01-25T13:07:06.798Z,11.94
2018-01-25T13:08:06.525Z,11.94
2018-01-25T13:09:06.925Z,11.94